sensor_id;sensor_type;location;lat;lon;timestamp;P1;durP1;ratioP1;P2;durP2;ratioP2
43807;SDS011;29438;50.664;10.098;2023-05-19T00:01:34;4.88;;;1.60;;
43807;SDS011;29438;50.664;10.098;2023-05-19T00:04:01;5.07;;;1.70;;
43807;SDS011;29438;50.664;10.098;2023-05-19T00:06:29;4.25;;;1.80;;
43807;SDS011;29438;50.664;10.098;2023-05-19T00:09:04;4.68;;;1.88;;
43807;SDS011;29438;50.664;10.098;2023-05-19T00:11:34;6.72;;;1.83;;
43807;SDS011;29438;50.664;10.098;2023-05-19T00:14:02;4.00;;;1.63;;
43807;SDS011;29438;50.664;10.098;2023-05-19T00:16:29;5.07;;;1.80;;
43807;SDS011;29438;50.664;10.098;2023-05-19T00:18:58;4.57;;;1.80;;
43807;SDS011;29438;50.664;10.098;2023-05-19T00:21:25;4.22;;;1.75;;
43807;SDS011;29438;50.664;10.098;2023-05-19T00:23:51;4.75;;;1.60;;
43807;SDS011;29438;50.664;10.098;2023-05-19T00:26:17;5.00;;;1.83;;
43807;SDS011;29438;50.664;10.098;2023-05-19T00:28:43;4.40;;;1.55;;
43807;SDS011;29438;50.664;10.098;2023-05-19T00:31:08;4.30;;;1.90;;
43807;SDS011;29438;50.664;10.098;2023-05-19T00:33:34;4.80;;;1.70;;
43807;SDS011;29438;50.664;10.098;2023-05-19T00:36:00;7.25;;;1.98;;
43807;SDS011;29438;50.664;10.098;2023-05-19T00:38:30;4.65;;;2.00;;
43807;SDS011;29438;50.664;10.098;2023-05-19T00:40:57;5.43;;;1.50;;
43807;SDS011;29438;50.664;10.098;2023-05-19T00:43:23;3.45;;;1.60;;
43807;SDS011;29438;50.664;10.098;2023-05-19T00:45:49;5.53;;;1.80;;
43807;SDS011;29438;50.664;10.098;2023-05-19T00:48:14;4.43;;;1.77;;
43807;SDS011;29438;50.664;10.098;2023-05-19T00:50:40;4.25;;;1.77;;
43807;SDS011;29438;50.664;10.098;2023-05-19T00:53:06;4.38;;;1.70;;
43807;SDS011;29438;50.664;10.098;2023-05-19T00:55:32;3.85;;;2.00;;
43807;SDS011;29438;50.664;10.098;2023-05-19T00:58:00;5.70;;;2.20;;
43807;SDS011;29438;50.664;10.098;2023-05-19T01:00:27;5.07;;;1.80;;
43807;SDS011;29438;50.664;10.098;2023-05-19T01:02:54;6.35;;;1.90;;
43807;SDS011;29438;50.664;10.098;2023-05-19T01:05:19;6.35;;;2.00;;
43807;SDS011;29438;50.664;10.098;2023-05-19T01:07:45;6.13;;;1.83;;
43807;SDS011;29438;50.664;10.098;2023-05-19T01:10:11;3.05;;;1.73;;
43807;SDS011;29438;50.664;10.098;2023-05-19T01:12:37;5.90;;;1.92;;
43807;SDS011;29438;50.664;10.098;2023-05-19T01:15:04;6.18;;;1.92;;
43807;SDS011;29438;50.664;10.098;2023-05-19T01:23:08;4.57;;;1.77;;
43807;SDS011;29438;50.664;10.098;2023-05-19T01:26:15;4.20;;;1.80;;
43807;SDS011;29438;50.664;10.098;2023-05-19T01:28:56;5.72;;;2.30;;
43807;SDS011;29438;50.664;10.098;2023-05-19T01:31:24;4.75;;;1.90;;
43807;SDS011;29438;50.664;10.098;2023-05-19T01:33:51;3.80;;;1.80;;
43807;SDS011;29438;50.664;10.098;2023-05-19T01:36:18;6.25;;;1.73;;
43807;SDS011;29438;50.664;10.098;2023-05-19T01:38:47;3.55;;;1.88;;
43807;SDS011;29438;50.664;10.098;2023-05-19T01:41:15;4.00;;;1.90;;
43807;SDS011;29438;50.664;10.098;2023-05-19T01:43:43;5.07;;;1.90;;
43807;SDS011;29438;50.664;10.098;2023-05-19T01:46:09;3.35;;;1.77;;
43807;SDS011;29438;50.664;10.098;2023-05-19T01:48:36;4.57;;;2.10;;
43807;SDS011;29438;50.664;10.098;2023-05-19T01:51:02;3.35;;;1.77;;
43807;SDS011;29438;50.664;10.098;2023-05-19T01:53:27;6.15;;;2.10;;
43807;SDS011;29438;50.664;10.098;2023-05-19T01:55:53;4.82;;;1.88;;
43807;SDS011;29438;50.664;10.098;2023-05-19T02:01:00;5.35;;;1.90;;
43807;SDS011;29438;50.664;10.098;2023-05-19T02:06:13;6.47;;;2.30;;
43807;SDS011;29438;50.664;10.098;2023-05-19T02:11:49;4.22;;;1.95;;
43807;SDS011;29438;50.664;10.098;2023-05-19T02:16:46;4.00;;;2.20;;
43807;SDS011;29438;50.664;10.098;2023-05-19T02:19:22;5.03;;;2.13;;
43807;SDS011;29438;50.664;10.098;2023-05-19T02:21:50;6.38;;;2.05;;
43807;SDS011;29438;50.664;10.098;2023-05-19T02:24:16;6.18;;;2.15;;
43807;SDS011;29438;50.664;10.098;2023-05-19T02:26:42;6.95;;;2.47;;
43807;SDS011;29438;50.664;10.098;2023-05-19T02:29:08;4.25;;;2.30;;
43807;SDS011;29438;50.664;10.098;2023-05-19T02:31:33;6.13;;;2.33;;
43807;SDS011;29438;50.664;10.098;2023-05-19T02:33:59;6.20;;;2.30;;
43807;SDS011;29438;50.664;10.098;2023-05-19T02:36:24;6.15;;;2.33;;
43807;SDS011;29438;50.664;10.098;2023-05-19T02:38:50;5.18;;;2.25;;
43807;SDS011;29438;50.664;10.098;2023-05-19T02:41:16;7.28;;;2.97;;
43807;SDS011;29438;50.664;10.098;2023-05-19T02:43:41;6.00;;;2.50;;
43807;SDS011;29438;50.664;10.098;2023-05-19T02:46:07;5.70;;;2.40;;
43807;SDS011;29438;50.664;10.098;2023-05-19T02:48:32;6.47;;;2.20;;
43807;SDS011;29438;50.664;10.098;2023-05-19T02:50:58;5.90;;;2.40;;
43807;SDS011;29438;50.664;10.098;2023-05-19T02:53:23;6.65;;;2.20;;
43807;SDS011;29438;50.664;10.098;2023-05-19T02:55:49;4.03;;;2.40;;
43807;SDS011;29438;50.664;10.098;2023-05-19T02:58:15;4.50;;;2.05;;
43807;SDS011;29438;50.664;10.098;2023-05-19T03:00:40;4.40;;;2.33;;
43807;SDS011;29438;50.664;10.098;2023-05-19T03:03:08;3.88;;;2.20;;
43807;SDS011;29438;50.664;10.098;2023-05-19T03:05:34;3.97;;;2.17;;
43807;SDS011;29438;50.664;10.098;2023-05-19T03:08:00;4.88;;;2.20;;
43807;SDS011;29438;50.664;10.098;2023-05-19T03:10:25;6.32;;;2.42;;
43807;SDS011;29438;50.664;10.098;2023-05-19T03:12:51;6.22;;;2.20;;
43807;SDS011;29438;50.664;10.098;2023-05-19T03:15:16;4.25;;;2.20;;
43807;SDS011;29438;50.664;10.098;2023-05-19T03:17:43;4.38;;;2.25;;
43807;SDS011;29438;50.664;10.098;2023-05-19T03:20:08;3.78;;;1.80;;
43807;SDS011;29438;50.664;10.098;2023-05-19T03:22:34;3.78;;;2.28;;
43807;SDS011;29438;50.664;10.098;2023-05-19T03:25:00;4.93;;;1.98;;
43807;SDS011;29438;50.664;10.098;2023-05-19T03:27:27;6.68;;;2.00;;
43807;SDS011;29438;50.664;10.098;2023-05-19T03:29:53;4.65;;;2.22;;
43807;SDS011;29438;50.664;10.098;2023-05-19T03:32:18;5.13;;;2.10;;
43807;SDS011;29438;50.664;10.098;2023-05-19T03:34:44;4.90;;;2.30;;
43807;SDS011;29438;50.664;10.098;2023-05-19T03:37:09;7.78;;;2.35;;
43807;SDS011;29438;50.664;10.098;2023-05-19T03:39:35;5.10;;;1.83;;
43807;SDS011;29438;50.664;10.098;2023-05-19T03:42:01;5.55;;;2.20;;
43807;SDS011;29438;50.664;10.098;2023-05-19T03:44:26;5.53;;;2.30;;
43807;SDS011;29438;50.664;10.098;2023-05-19T03:46:52;6.30;;;2.13;;
43807;SDS011;29438;50.664;10.098;2023-05-19T03:49:17;7.05;;;2.30;;
43807;SDS011;29438;50.664;10.098;2023-05-19T03:51:42;5.18;;;2.10;;
43807;SDS011;29438;50.664;10.098;2023-05-19T03:54:08;5.13;;;2.28;;
43807;SDS011;29438;50.664;10.098;2023-05-19T03:56:36;3.67;;;2.10;;
43807;SDS011;29438;50.664;10.098;2023-05-19T03:59:03;5.97;;;2.25;;
43807;SDS011;29438;50.664;10.098;2023-05-19T04:01:31;4.18;;;2.22;;
43807;SDS011;29438;50.664;10.098;2023-05-19T04:03:57;3.85;;;2.03;;
43807;SDS011;29438;50.664;10.098;2023-05-19T04:06:22;5.25;;;2.30;;
43807;SDS011;29438;50.664;10.098;2023-05-19T04:08:48;5.43;;;1.90;;
43807;SDS011;29438;50.664;10.098;2023-05-19T04:11:14;5.20;;;2.05;;
43807;SDS011;29438;50.664;10.098;2023-05-19T04:13:39;3.25;;;1.80;;
43807;SDS011;29438;50.664;10.098;2023-05-19T04:16:05;4.88;;;1.92;;
43807;SDS011;29438;50.664;10.098;2023-05-19T04:18:31;4.57;;;1.90;;
43807;SDS011;29438;50.664;10.098;2023-05-19T04:20:56;5.32;;;1.80;;
43807;SDS011;29438;50.664;10.098;2023-05-19T04:23:22;4.10;;;1.63;;
43807;SDS011;29438;50.664;10.098;2023-05-19T04:25:47;4.15;;;1.35;;
43807;SDS011;29438;50.664;10.098;2023-05-19T04:28:13;2.72;;;1.30;;
43807;SDS011;29438;50.664;10.098;2023-05-19T04:30:39;4.43;;;1.50;;
43807;SDS011;29438;50.664;10.098;2023-05-19T04:33:06;4.05;;;1.40;;
43807;SDS011;29438;50.664;10.098;2023-05-19T04:35:32;2.70;;;1.00;;
43807;SDS011;29438;50.664;10.098;2023-05-19T04:37:57;5.78;;;1.55;;
43807;SDS011;29438;50.664;10.098;2023-05-19T04:40:23;3.70;;;1.10;;
43807;SDS011;29438;50.664;10.098;2023-05-19T04:42:49;3.92;;;1.10;;
43807;SDS011;29438;50.664;10.098;2023-05-19T04:45:16;2.47;;;1.00;;
43807;SDS011;29438;50.664;10.098;2023-05-19T04:47:41;1.67;;;0.90;;
43807;SDS011;29438;50.664;10.098;2023-05-19T04:50:08;2.75;;;0.90;;
43807;SDS011;29438;50.664;10.098;2023-05-19T04:52:35;2.35;;;0.95;;
43807;SDS011;29438;50.664;10.098;2023-05-19T04:55:01;3.15;;;1.10;;
43807;SDS011;29438;50.664;10.098;2023-05-19T04:57:27;3.65;;;1.10;;
43807;SDS011;29438;50.664;10.098;2023-05-19T04:59:52;4.22;;;1.20;;
43807;SDS011;29438;50.664;10.098;2023-05-19T05:02:23;5.95;;;1.40;;
43807;SDS011;29438;50.664;10.098;2023-05-19T05:04:51;3.30;;;1.00;;
43807;SDS011;29438;50.664;10.098;2023-05-19T05:07:18;3.70;;;1.10;;
43807;SDS011;29438;50.664;10.098;2023-05-19T05:09:45;4.53;;;1.20;;
43807;SDS011;29438;50.664;10.098;2023-05-19T05:12:12;2.58;;;0.95;;
43807;SDS011;29438;50.664;10.098;2023-05-19T05:14:38;1.88;;;1.05;;
43807;SDS011;29438;50.664;10.098;2023-05-19T05:17:05;3.92;;;0.80;;
43807;SDS011;29438;50.664;10.098;2023-05-19T05:19:31;3.42;;;0.90;;
43807;SDS011;29438;50.664;10.098;2023-05-19T05:21:57;3.50;;;0.85;;
43807;SDS011;29438;50.664;10.098;2023-05-19T05:24:23;4.45;;;1.05;;
43807;SDS011;29438;50.664;10.098;2023-05-19T05:26:49;2.85;;;0.88;;
43807;SDS011;29438;50.664;10.098;2023-05-19T05:29:16;1.65;;;0.70;;
43807;SDS011;29438;50.664;10.098;2023-05-19T05:31:44;2.30;;;0.80;;
43807;SDS011;29438;50.664;10.098;2023-05-19T05:34:09;4.07;;;0.90;;
43807;SDS011;29438;50.664;10.098;2023-05-19T05:36:35;3.80;;;1.00;;
43807;SDS011;29438;50.664;10.098;2023-05-19T05:39:01;2.92;;;1.10;;
43807;SDS011;29438;50.664;10.098;2023-05-19T05:41:27;2.88;;;1.02;;
43807;SDS011;29438;50.664;10.098;2023-05-19T05:44:02;3.42;;;1.00;;
43807;SDS011;29438;50.664;10.098;2023-05-19T05:46:28;3.03;;;1.00;;
43807;SDS011;29438;50.664;10.098;2023-05-19T05:48:53;4.30;;;1.20;;
43807;SDS011;29438;50.664;10.098;2023-05-19T05:51:20;4.35;;;0.98;;
43807;SDS011;29438;50.664;10.098;2023-05-19T05:53:51;3.33;;;1.00;;
43807;SDS011;29438;50.664;10.098;2023-05-19T05:56:18;4.03;;;1.00;;
43807;SDS011;29438;50.664;10.098;2023-05-19T05:58:44;3.67;;;0.90;;
43807;SDS011;29438;50.664;10.098;2023-05-19T06:01:10;2.17;;;0.90;;
43807;SDS011;29438;50.664;10.098;2023-05-19T06:03:37;2.95;;;1.30;;
43807;SDS011;29438;50.664;10.098;2023-05-19T06:06:04;4.85;;;1.48;;
43807;SDS011;29438;50.664;10.098;2023-05-19T06:08:30;4.50;;;1.30;;
43807;SDS011;29438;50.664;10.098;2023-05-19T06:10:56;5.88;;;1.50;;
43807;SDS011;29438;50.664;10.098;2023-05-19T06:13:22;3.95;;;1.40;;
43807;SDS011;29438;50.664;10.098;2023-05-19T06:15:49;3.75;;;1.27;;
43807;SDS011;29438;50.664;10.098;2023-05-19T06:18:17;3.28;;;1.33;;
43807;SDS011;29438;50.664;10.098;2023-05-19T06:20:43;2.83;;;1.17;;
43807;SDS011;29438;50.664;10.098;2023-05-19T06:23:09;4.75;;;1.50;;
43807;SDS011;29438;50.664;10.098;2023-05-19T06:25:34;4.03;;;1.52;;
43807;SDS011;29438;50.664;10.098;2023-05-19T06:28:00;4.43;;;1.40;;
43807;SDS011;29438;50.664;10.098;2023-05-19T06:30:25;3.45;;;1.52;;
43807;SDS011;29438;50.664;10.098;2023-05-19T06:32:51;3.88;;;1.60;;
43807;SDS011;29438;50.664;10.098;2023-05-19T06:35:16;6.55;;;1.50;;
43807;SDS011;29438;50.664;10.098;2023-05-19T06:37:42;2.92;;;1.55;;
43807;SDS011;29438;50.664;10.098;2023-05-19T06:40:08;4.75;;;1.40;;
43807;SDS011;29438;50.664;10.098;2023-05-19T06:42:34;6.35;;;1.40;;
43807;SDS011;29438;50.664;10.098;2023-05-19T06:44:59;4.65;;;1.50;;
43807;SDS011;29438;50.664;10.098;2023-05-19T06:47:25;4.70;;;1.50;;
43807;SDS011;29438;50.664;10.098;2023-05-19T06:49:50;5.50;;;1.27;;
43807;SDS011;29438;50.664;10.098;2023-05-19T06:52:19;3.20;;;1.25;;
43807;SDS011;29438;50.664;10.098;2023-05-19T06:54:46;3.65;;;1.40;;
43807;SDS011;29438;50.664;10.098;2023-05-19T06:57:12;5.03;;;1.63;;
43807;SDS011;29438;50.664;10.098;2023-05-19T06:59:38;4.18;;;1.58;;
43807;SDS011;29438;50.664;10.098;2023-05-19T07:02:05;3.60;;;1.27;;
43807;SDS011;29438;50.664;10.098;2023-05-19T07:04:31;3.40;;;1.20;;
43807;SDS011;29438;50.664;10.098;2023-05-19T07:06:57;3.45;;;1.52;;
43807;SDS011;29438;50.664;10.098;2023-05-19T07:09:22;3.13;;;1.40;;
43807;SDS011;29438;50.664;10.098;2023-05-19T07:11:48;3.60;;;1.10;;
43807;SDS011;29438;50.664;10.098;2023-05-19T07:14:13;5.20;;;1.35;;
43807;SDS011;29438;50.664;10.098;2023-05-19T07:16:39;3.50;;;1.33;;
43807;SDS011;29438;50.664;10.098;2023-05-19T07:19:05;3.03;;;1.40;;
43807;SDS011;29438;50.664;10.098;2023-05-19T07:21:30;4.25;;;1.50;;
43807;SDS011;29438;50.664;10.098;2023-05-19T07:23:56;3.05;;;1.20;;
43807;SDS011;29438;50.664;10.098;2023-05-19T07:26:21;4.15;;;1.35;;
43807;SDS011;29438;50.664;10.098;2023-05-19T07:28:47;4.68;;;1.48;;
43807;SDS011;29438;50.664;10.098;2023-05-19T07:31:13;3.00;;;1.30;;
43807;SDS011;29438;50.664;10.098;2023-05-19T07:33:39;3.08;;;1.40;;
43807;SDS011;29438;50.664;10.098;2023-05-19T07:36:04;4.15;;;1.48;;
43807;SDS011;29438;50.664;10.098;2023-05-19T07:38:30;4.05;;;1.15;;
43807;SDS011;29438;50.664;10.098;2023-05-19T07:40:58;4.75;;;1.38;;
43807;SDS011;29438;50.664;10.098;2023-05-19T07:43:24;3.58;;;1.30;;
43807;SDS011;29438;50.664;10.098;2023-05-19T07:45:50;4.30;;;1.13;;
43807;SDS011;29438;50.664;10.098;2023-05-19T07:48:18;4.97;;;1.00;;
43807;SDS011;29438;50.664;10.098;2023-05-19T07:50:46;3.30;;;1.15;;
43807;SDS011;29438;50.664;10.098;2023-05-19T07:53:16;3.63;;;1.30;;
43807;SDS011;29438;50.664;10.098;2023-05-19T07:55:42;2.47;;;1.10;;
43807;SDS011;29438;50.664;10.098;2023-05-19T07:58:07;4.30;;;1.13;;
43807;SDS011;29438;50.664;10.098;2023-05-19T08:00:33;4.47;;;1.27;;
43807;SDS011;29438;50.664;10.098;2023-05-19T08:02:58;4.47;;;1.15;;
43807;SDS011;29438;50.664;10.098;2023-05-19T08:05:24;3.03;;;1.10;;
43807;SDS011;29438;50.664;10.098;2023-05-19T08:07:50;3.65;;;1.00;;
43807;SDS011;29438;50.664;10.098;2023-05-19T08:10:16;3.17;;;1.27;;
43807;SDS011;29438;50.664;10.098;2023-05-19T08:12:41;2.40;;;1.08;;
43807;SDS011;29438;50.664;10.098;2023-05-19T08:15:08;3.55;;;1.20;;
43807;SDS011;29438;50.664;10.098;2023-05-19T08:17:37;2.72;;;1.20;;
43807;SDS011;29438;50.664;10.098;2023-05-19T08:20:03;3.30;;;1.10;;
43807;SDS011;29438;50.664;10.098;2023-05-19T08:22:31;3.05;;;0.88;;
43807;SDS011;29438;50.664;10.098;2023-05-19T08:24:57;3.15;;;1.23;;
43807;SDS011;29438;50.664;10.098;2023-05-19T08:27:22;4.07;;;1.17;;
43807;SDS011;29438;50.664;10.098;2023-05-19T08:29:48;3.85;;;1.20;;
43807;SDS011;29438;50.664;10.098;2023-05-19T08:32:13;2.92;;;0.93;;
43807;SDS011;29438;50.664;10.098;2023-05-19T08:34:39;2.65;;;1.08;;
43807;SDS011;29438;50.664;10.098;2023-05-19T08:37:05;4.13;;;1.00;;
43807;SDS011;29438;50.664;10.098;2023-05-19T08:39:31;2.50;;;0.80;;
43807;SDS011;29438;50.664;10.098;2023-05-19T08:41:58;3.90;;;0.95;;
43807;SDS011;29438;50.664;10.098;2023-05-19T08:44:24;1.75;;;0.90;;
43807;SDS011;29438;50.664;10.098;2023-05-19T08:46:50;3.33;;;1.08;;
43807;SDS011;29438;50.664;10.098;2023-05-19T08:49:20;2.42;;;1.00;;
43807;SDS011;29438;50.664;10.098;2023-05-19T08:52:12;2.67;;;0.88;;
43807;SDS011;29438;50.664;10.098;2023-05-19T08:55:10;2.45;;;0.80;;
43807;SDS011;29438;50.664;10.098;2023-05-19T08:57:37;2.95;;;0.93;;
43807;SDS011;29438;50.664;10.098;2023-05-19T09:00:03;3.00;;;0.98;;
43807;SDS011;29438;50.664;10.098;2023-05-19T09:02:39;2.60;;;0.90;;
43807;SDS011;29438;50.664;10.098;2023-05-19T09:05:05;3.03;;;0.88;;
43807;SDS011;29438;50.664;10.098;2023-05-19T09:07:31;3.22;;;0.88;;
43807;SDS011;29438;50.664;10.098;2023-05-19T09:10:00;3.90;;;1.00;;
43807;SDS011;29438;50.664;10.098;2023-05-19T09:12:26;2.97;;;0.90;;
43807;SDS011;29438;50.664;10.098;2023-05-19T09:14:52;2.65;;;0.98;;
43807;SDS011;29438;50.664;10.098;2023-05-19T09:17:17;2.63;;;0.90;;
43807;SDS011;29438;50.664;10.098;2023-05-19T09:19:43;2.25;;;0.80;;
43807;SDS011;29438;50.664;10.098;2023-05-19T09:22:12;2.35;;;0.90;;
43807;SDS011;29438;50.664;10.098;2023-05-19T09:24:40;2.72;;;0.90;;
43807;SDS011;29438;50.664;10.098;2023-05-19T09:27:06;2.67;;;0.90;;
43807;SDS011;29438;50.664;10.098;2023-05-19T09:29:32;4.07;;;1.10;;
43807;SDS011;29438;50.664;10.098;2023-05-19T09:31:57;3.58;;;1.10;;
43807;SDS011;29438;50.664;10.098;2023-05-19T09:34:25;2.97;;;1.00;;
43807;SDS011;29438;50.664;10.098;2023-05-19T09:36:51;4.03;;;0.98;;
43807;SDS011;29438;50.664;10.098;2023-05-19T09:39:21;3.38;;;1.20;;
43807;SDS011;29438;50.664;10.098;2023-05-19T09:41:54;3.10;;;1.20;;
43807;SDS011;29438;50.664;10.098;2023-05-19T09:44:22;4.88;;;1.20;;
43807;SDS011;29438;50.664;10.098;2023-05-19T09:46:49;4.28;;;1.25;;
43807;SDS011;29438;50.664;10.098;2023-05-19T09:49:19;1.75;;;0.77;;
43807;SDS011;29438;50.664;10.098;2023-05-19T09:51:56;3.75;;;1.30;;
43807;SDS011;29438;50.664;10.098;2023-05-19T09:54:23;3.28;;;1.27;;
43807;SDS011;29438;50.664;10.098;2023-05-19T09:56:57;2.55;;;0.90;;
43807;SDS011;29438;50.664;10.098;2023-05-19T09:59:23;2.58;;;0.80;;
43807;SDS011;29438;50.664;10.098;2023-05-19T10:01:52;2.90;;;1.20;;
43807;SDS011;29438;50.664;10.098;2023-05-19T10:04:19;3.10;;;1.10;;
43807;SDS011;29438;50.664;10.098;2023-05-19T10:06:46;4.72;;;1.15;;
43807;SDS011;29438;50.664;10.098;2023-05-19T10:09:21;4.10;;;1.10;;
43807;SDS011;29438;50.664;10.098;2023-05-19T10:11:51;4.75;;;1.15;;
43807;SDS011;29438;50.664;10.098;2023-05-19T10:14:18;1.95;;;1.20;;
43807;SDS011;29438;50.664;10.098;2023-05-19T10:16:47;2.92;;;1.00;;
43807;SDS011;29438;50.664;10.098;2023-05-19T10:19:14;3.97;;;1.10;;
43807;SDS011;29438;50.664;10.098;2023-05-19T10:21:41;3.65;;;1.20;;
43807;SDS011;29438;50.664;10.098;2023-05-19T10:24:07;4.57;;;1.30;;
43807;SDS011;29438;50.664;10.098;2023-05-19T10:26:33;3.70;;;1.52;;
43807;SDS011;29438;50.664;10.098;2023-05-19T10:28:59;3.05;;;1.25;;
43807;SDS011;29438;50.664;10.098;2023-05-19T10:31:27;3.22;;;1.30;;
43807;SDS011;29438;50.664;10.098;2023-05-19T10:36:43;5.38;;;1.40;;
43807;SDS011;29438;50.664;10.098;2023-05-19T10:39:23;3.28;;;1.38;;
43807;SDS011;29438;50.664;10.098;2023-05-19T10:46:57;2.45;;;1.50;;
43807;SDS011;29438;50.664;10.098;2023-05-19T10:49:22;5.72;;;1.60;;
43807;SDS011;29438;50.664;10.098;2023-05-19T10:51:48;4.45;;;1.45;;
43807;SDS011;29438;50.664;10.098;2023-05-19T10:54:15;4.63;;;1.60;;
43807;SDS011;29438;50.664;10.098;2023-05-19T10:56:42;4.57;;;1.35;;
43807;SDS011;29438;50.664;10.098;2023-05-19T10:59:29;3.80;;;1.60;;
43807;SDS011;29438;50.664;10.098;2023-05-19T11:01:56;3.78;;;1.58;;
43807;SDS011;29438;50.664;10.098;2023-05-19T11:04:37;3.45;;;1.63;;
43807;SDS011;29438;50.664;10.098;2023-05-19T11:07:16;3.17;;;1.77;;
43807;SDS011;29438;50.664;10.098;2023-05-19T11:09:43;5.85;;;1.77;;
43807;SDS011;29438;50.664;10.098;2023-05-19T11:12:14;3.58;;;1.80;;
43807;SDS011;29438;50.664;10.098;2023-05-19T11:14:44;3.35;;;1.88;;
43807;SDS011;29438;50.664;10.098;2023-05-19T11:17:14;2.97;;;1.50;;
43807;SDS011;29438;50.664;10.098;2023-05-19T11:19:50;4.97;;;1.90;;
43807;SDS011;29438;50.664;10.098;2023-05-19T11:22:17;5.07;;;1.88;;
43807;SDS011;29438;50.664;10.098;2023-05-19T11:24:47;3.65;;;1.60;;
43807;SDS011;29438;50.664;10.098;2023-05-19T11:32:32;4.63;;;1.85;;
43807;SDS011;29438;50.664;10.098;2023-05-19T11:34:59;3.95;;;1.85;;
43807;SDS011;29438;50.664;10.098;2023-05-19T11:37:25;4.38;;;1.70;;
43807;SDS011;29438;50.664;10.098;2023-05-19T11:39:53;2.88;;;1.52;;
43807;SDS011;29438;50.664;10.098;2023-05-19T11:42:18;4.05;;;1.50;;
43807;SDS011;29438;50.664;10.098;2023-05-19T11:44:44;2.22;;;1.10;;
43807;SDS011;29438;50.664;10.098;2023-05-19T11:47:11;2.17;;;1.20;;
43807;SDS011;29438;50.664;10.098;2023-05-19T11:49:37;2.67;;;1.20;;
43807;SDS011;29438;50.664;10.098;2023-05-19T11:52:03;2.55;;;1.30;;
43807;SDS011;29438;50.664;10.098;2023-05-19T11:54:29;3.63;;;1.50;;
43807;SDS011;29438;50.664;10.098;2023-05-19T11:56:56;4.05;;;1.40;;
43807;SDS011;29438;50.664;10.098;2023-05-19T11:59:29;3.58;;;1.55;;
43807;SDS011;29438;50.664;10.098;2023-05-19T12:01:56;2.88;;;1.50;;
43807;SDS011;29438;50.664;10.098;2023-05-19T12:04:22;2.72;;;1.50;;
43807;SDS011;29438;50.664;10.098;2023-05-19T12:06:48;1.90;;;1.10;;
43807;SDS011;29438;50.664;10.098;2023-05-19T12:09:13;2.20;;;1.27;;
43807;SDS011;29438;50.664;10.098;2023-05-19T12:11:39;3.33;;;1.35;;
43807;SDS011;29438;50.664;10.098;2023-05-19T12:14:05;2.38;;;1.30;;
43807;SDS011;29438;50.664;10.098;2023-05-19T12:16:35;2.05;;;1.20;;
43807;SDS011;29438;50.664;10.098;2023-05-19T12:19:01;3.03;;;1.30;;
43807;SDS011;29438;50.664;10.098;2023-05-19T12:21:30;3.33;;;1.70;;
43807;SDS011;29438;50.664;10.098;2023-05-19T12:23:56;2.60;;;1.63;;
43807;SDS011;29438;50.664;10.098;2023-05-19T12:26:23;2.53;;;1.60;;
43807;SDS011;29438;50.664;10.098;2023-05-19T12:28:48;2.83;;;1.30;;
43807;SDS011;29438;50.664;10.098;2023-05-19T12:31:15;3.40;;;1.33;;
43807;SDS011;29438;50.664;10.098;2023-05-19T12:33:41;1.95;;;1.40;;
43807;SDS011;29438;50.664;10.098;2023-05-19T12:36:07;2.70;;;1.88;;
43807;SDS011;29438;50.664;10.098;2023-05-19T12:38:34;2.58;;;1.58;;
43807;SDS011;29438;50.664;10.098;2023-05-19T12:41:03;3.28;;;1.52;;
43807;SDS011;29438;50.664;10.098;2023-05-19T12:43:31;3.00;;;1.80;;
43807;SDS011;29438;50.664;10.098;2023-05-19T12:45:57;2.85;;;1.50;;
43807;SDS011;29438;50.664;10.098;2023-05-19T12:48:23;3.03;;;1.77;;
43807;SDS011;29438;50.664;10.098;2023-05-19T12:50:50;3.28;;;1.90;;
43807;SDS011;29438;50.664;10.098;2023-05-19T12:53:16;3.65;;;1.88;;
43807;SDS011;29438;50.664;10.098;2023-05-19T12:55:43;2.40;;;1.50;;
43807;SDS011;29438;50.664;10.098;2023-05-19T12:58:10;2.70;;;1.67;;
43807;SDS011;29438;50.664;10.098;2023-05-19T13:00:39;3.65;;;1.83;;
43807;SDS011;29438;50.664;10.098;2023-05-19T13:03:07;3.22;;;1.30;;
43807;SDS011;29438;50.664;10.098;2023-05-19T13:05:40;3.15;;;1.60;;
43807;SDS011;29438;50.664;10.098;2023-05-19T13:08:10;2.85;;;1.48;;
43807;SDS011;29438;50.664;10.098;2023-05-19T13:10:40;3.05;;;1.50;;
43807;SDS011;29438;50.664;10.098;2023-05-19T13:13:07;2.78;;;1.33;;
43807;SDS011;29438;50.664;10.098;2023-05-19T13:15:36;2.70;;;1.58;;
43807;SDS011;29438;50.664;10.098;2023-05-19T13:18:06;2.67;;;1.50;;
43807;SDS011;29438;50.664;10.098;2023-05-19T13:20:32;2.70;;;1.80;;
43807;SDS011;29438;50.664;10.098;2023-05-19T13:22:58;1.95;;;1.45;;
43807;SDS011;29438;50.664;10.098;2023-05-19T13:25:24;3.72;;;1.60;;
43807;SDS011;29438;50.664;10.098;2023-05-19T13:27:51;3.33;;;1.40;;
43807;SDS011;29438;50.664;10.098;2023-05-19T13:30:17;2.20;;;1.33;;
43807;SDS011;29438;50.664;10.098;2023-05-19T13:32:43;3.58;;;1.30;;
43807;SDS011;29438;50.664;10.098;2023-05-19T13:35:09;3.55;;;1.42;;
43807;SDS011;29438;50.664;10.098;2023-05-19T13:37:36;1.77;;;1.00;;
43807;SDS011;29438;50.664;10.098;2023-05-19T13:40:03;1.90;;;0.82;;
43807;SDS011;29438;50.664;10.098;2023-05-19T13:42:30;3.30;;;0.85;;
43807;SDS011;29438;50.664;10.098;2023-05-19T13:44:56;2.75;;;0.80;;
43807;SDS011;29438;50.664;10.098;2023-05-19T13:47:22;1.88;;;1.00;;
43807;SDS011;29438;50.664;10.098;2023-05-19T13:49:48;1.77;;;0.70;;
43807;SDS011;29438;50.664;10.098;2023-05-19T13:52:13;3.45;;;0.80;;
43807;SDS011;29438;50.664;10.098;2023-05-19T13:54:39;2.90;;;1.00;;
43807;SDS011;29438;50.664;10.098;2023-05-19T13:57:04;3.67;;;1.02;;
43807;SDS011;29438;50.664;10.098;2023-05-19T13:59:30;1.80;;;1.00;;
43807;SDS011;29438;50.664;10.098;2023-05-19T14:01:56;2.25;;;1.00;;
43807;SDS011;29438;50.664;10.098;2023-05-19T14:04:22;2.20;;;0.93;;
43807;SDS011;29438;50.664;10.098;2023-05-19T14:06:48;1.88;;;0.90;;
43807;SDS011;29438;50.664;10.098;2023-05-19T14:09:14;2.78;;;0.93;;
43807;SDS011;29438;50.664;10.098;2023-05-19T14:11:40;3.05;;;0.90;;
43807;SDS011;29438;50.664;10.098;2023-05-19T14:14:06;2.35;;;0.90;;
43807;SDS011;29438;50.664;10.098;2023-05-19T14:16:32;1.90;;;0.80;;
43807;SDS011;29438;50.664;10.098;2023-05-19T14:18:58;2.42;;;0.85;;
43807;SDS011;29438;50.664;10.098;2023-05-19T14:21:23;2.67;;;0.93;;
43807;SDS011;29438;50.664;10.098;2023-05-19T14:23:49;3.97;;;0.90;;
43807;SDS011;29438;50.664;10.098;2023-05-19T14:26:14;2.72;;;0.88;;
43807;SDS011;29438;50.664;10.098;2023-05-19T14:28:40;2.28;;;1.00;;
43807;SDS011;29438;50.664;10.098;2023-05-19T14:31:10;1.73;;;0.90;;
43807;SDS011;29438;50.664;10.098;2023-05-19T14:33:39;2.13;;;0.77;;
43807;SDS011;29438;50.664;10.098;2023-05-19T14:36:05;1.80;;;0.68;;
43807;SDS011;29438;50.664;10.098;2023-05-19T14:38:34;1.92;;;0.82;;
43807;SDS011;29438;50.664;10.098;2023-05-19T14:40:59;3.33;;;1.33;;
43807;SDS011;29438;50.664;10.098;2023-05-19T14:43:25;2.65;;;1.27;;
43807;SDS011;29438;50.664;10.098;2023-05-19T14:45:51;2.72;;;1.42;;
43807;SDS011;29438;50.664;10.098;2023-05-19T14:48:16;3.20;;;1.50;;
43807;SDS011;29438;50.664;10.098;2023-05-19T14:50:42;3.05;;;1.50;;
43807;SDS011;29438;50.664;10.098;2023-05-19T14:53:08;3.00;;;1.33;;
43807;SDS011;29438;50.664;10.098;2023-05-19T14:55:34;3.10;;;1.55;;
43807;SDS011;29438;50.664;10.098;2023-05-19T14:58:00;4.93;;;1.20;;
43807;SDS011;29438;50.664;10.098;2023-05-19T15:00:26;2.17;;;1.27;;
43807;SDS011;29438;50.664;10.098;2023-05-19T15:02:52;2.22;;;1.13;;